createdAt,value
2022-12-28T00:02:18.704Z,5.82
2022-12-28T00:04:46.851Z,5.80
2022-12-28T00:07:16.763Z,5.83
2022-12-28T00:09:44.772Z,5.85
2022-12-28T00:12:12.970Z,5.84
2022-12-28T00:14:41.169Z,5.86
2022-12-28T00:17:09.286Z,5.86
2022-12-28T00:19:37.621Z,5.86
2022-12-28T00:22:05.766Z,5.79
2022-12-28T00:24:36.089Z,5.80
2022-12-28T00:27:04.285Z,5.79
2022-12-28T00:29:32.778Z,5.79
2022-12-28T00:32:01.296Z,5.79
2022-12-28T00:34:29.527Z,5.78
2022-12-28T00:37:08.748Z,5.82
2022-12-28T00:39:43.449Z,5.76
2022-12-28T00:42:12.069Z,5.78
2022-12-28T00:44:40.401Z,5.80
2022-12-28T00:47:08.822Z,5.82
2022-12-28T00:49:37.089Z,5.76
2022-12-28T00:52:05.515Z,5.86
2022-12-28T00:54:33.728Z,5.84
2022-12-28T00:57:03.590Z,5.84
2022-12-28T00:59:31.739Z,5.86
2022-12-28T01:01:59.952Z,5.86
2022-12-28T01:04:28.570Z,5.79
2022-12-28T01:06:56.698Z,5.81
2022-12-28T01:09:24.913Z,5.81
2022-12-28T01:11:53.288Z,5.80
2022-12-28T01:14:22.690Z,5.81
2022-12-28T01:16:50.909Z,5.81
2022-12-28T01:19:23.049Z,5.75
2022-12-28T01:21:52.535Z,5.73
2022-12-28T01:24:20.973Z,5.79
2022-12-28T01:26:49.078Z,5.83
2022-12-28T01:29:17.232Z,5.76
2022-12-28T01:31:47.055Z,5.69
2022-12-28T01:34:15.493Z,5.69
2022-12-28T01:36:43.561Z,5.68
2022-12-28T01:39:12.178Z,5.68
2022-12-28T01:41:42.468Z,5.70
2022-12-28T01:44:44.654Z,5.69
2022-12-28T01:47:20.972Z,5.63
2022-12-28T01:49:55.442Z,5.54
2022-12-28T01:52:31.051Z,5.61
2022-12-28T01:55:05.141Z,5.53
2022-12-28T01:57:37.645Z,5.39
2022-12-28T02:00:11.209Z,5.33
2022-12-28T02:02:43.412Z,5.22
2022-12-28T02:05:11.779Z,5.31
2022-12-28T02:07:47.908Z,5.27
2022-12-28T02:10:41.052Z,5.22
2022-12-28T02:13:06.834Z,5.15
2022-12-28T02:15:35.315Z,5.14
2022-12-28T02:18:05.165Z,5.07
2022-12-28T02:20:43.812Z,5.06
2022-12-28T02:23:28.938Z,5.00
2022-12-28T02:26:31.785Z,4.91
2022-12-28T02:29:20.616Z,4.98
2022-12-28T02:31:56.509Z,5.04
2022-12-28T02:34:29.580Z,4.99
2022-12-28T02:37:02.864Z,4.96
2022-12-28T02:39:36.854Z,4.91
2022-12-28T02:42:06.499Z,4.97
2022-12-28T02:44:54.224Z,4.94
2022-12-28T02:47:40.533Z,4.97
2022-12-28T02:50:12.600Z,4.97
2022-12-28T02:53:06.511Z,4.88
2022-12-28T02:56:06.757Z,4.79
2022-12-28T02:59:03.328Z,4.81
2022-12-28T03:02:04.106Z,4.70
2022-12-28T03:04:46.153Z,4.73
2022-12-28T03:07:43.369Z,4.68
2022-12-28T03:10:16.750Z,4.71
2022-12-28T03:12:51.724Z,4.68
2022-12-28T03:15:30.760Z,4.67
2022-12-28T03:18:24.662Z,4.60
2022-12-28T03:21:13.009Z,4.58
2022-12-28T03:24:00.588Z,4.55
2022-12-28T03:26:49.248Z,4.52
2022-12-28T03:29:37.226Z,4.52
2022-12-28T03:32:06.165Z,4.47
2022-12-28T03:34:36.368Z,4.30
2022-12-28T03:37:13.240Z,4.34
2022-12-28T03:39:46.532Z,4.27
2022-12-28T03:42:35.773Z,4.37
2022-12-28T03:45:11.544Z,4.37
2022-12-28T03:47:42.973Z,4.31
2022-12-28T03:50:13.638Z,4.34
2022-12-28T03:52:42.035Z,4.36
2022-12-28T03:55:11.964Z,4.39
2022-12-28T03:57:40.495Z,4.29
2022-12-28T04:00:10.979Z,4.18
2022-12-28T04:02:40.546Z,4.19
2022-12-28T04:05:09.667Z,4.19
2022-12-28T04:07:39.124Z,4.19
2022-12-28T04:10:07.844Z,4.15
2022-12-28T04:12:36.075Z,4.08
2022-12-28T04:15:04.305Z,4.06
2022-12-28T04:17:32.403Z,3.94
2022-12-28T04:20:00.816Z,4.06
2022-12-28T04:22:28.997Z,4.05
2022-12-28T04:24:58.840Z,3.98
2022-12-28T04:27:27.069Z,3.95
2022-12-28T04:29:55.505Z,3.98
2022-12-28T04:32:23.608Z,4.05
2022-12-28T04:34:52.017Z,4.04
2022-12-28T04:37:20.200Z,4.03
2022-12-28T04:39:55.979Z,3.98
2022-12-28T04:42:27.172Z,3.93
2022-12-28T04:44:55.616Z,3.97
2022-12-28T04:47:23.731Z,3.98
2022-12-28T04:49:51.956Z,3.93
2022-12-28T04:52:22.433Z,3.96
2022-12-28T04:54:50.680Z,3.92
2022-12-28T04:57:18.853Z,3.92
2022-12-28T04:59:48.491Z,3.81
2022-12-28T05:02:17.005Z,3.71
2022-12-28T05:04:45.340Z,3.73
2022-12-28T05:07:13.446Z,3.58
2022-12-28T05:09:41.578Z,3.72
2022-12-28T05:12:09.816Z,3.64
2022-12-28T05:14:37.953Z,3.64
2022-12-28T05:17:07.530Z,3.58
2022-12-28T05:19:35.716Z,3.60
2022-12-28T05:22:03.755Z,3.50
2022-12-28T05:24:31.975Z,3.54
2022-12-28T05:27:00.272Z,3.55
2022-12-28T05:29:28.388Z,3.54
2022-12-28T05:31:56.656Z,3.49
2022-12-28T05:34:26.279Z,3.51
2022-12-28T05:36:54.745Z,3.53
2022-12-28T05:39:22.959Z,3.63
2022-12-28T05:41:51.356Z,3.62
2022-12-28T05:44:19.619Z,3.57
2022-12-28T05:46:48.126Z,3.43
2022-12-28T05:49:16.416Z,3.48
2022-12-28T05:51:45.879Z,3.53
2022-12-28T05:54:13.970Z,3.54
2022-12-28T05:56:42.276Z,3.51
2022-12-28T05:59:10.445Z,3.53
2022-12-28T06:01:40.312Z,3.58
2022-12-28T06:04:10.331Z,3.54
2022-12-28T06:06:38.572Z,3.43
2022-12-28T06:09:08.205Z,3.43
2022-12-28T06:11:37.150Z,3.41
2022-12-28T06:14:06.101Z,3.41
2022-12-28T06:16:36.660Z,3.42
2022-12-28T06:19:09.165Z,3.40
2022-12-28T06:21:39.815Z,3.38
2022-12-28T06:24:10.946Z,3.35
2022-12-28T06:26:42.006Z,3.35
2022-12-28T06:29:11.348Z,3.41
2022-12-28T06:31:41.922Z,3.40
2022-12-28T06:34:11.345Z,3.39
2022-12-28T06:36:41.680Z,3.40
2022-12-28T06:39:13.524Z,3.39
2022-12-28T06:41:42.534Z,3.44
2022-12-28T06:44:12.499Z,3.36
2022-12-28T06:46:41.194Z,3.30
2022-12-28T06:49:09.514Z,3.32
2022-12-28T06:51:42.283Z,3.31
2022-12-28T06:54:12.861Z,3.24
2022-12-28T06:56:41.474Z,3.28
2022-12-28T06:59:10.136Z,3.37
2022-12-28T07:01:40.150Z,3.35
2022-12-28T07:04:10.358Z,3.38
2022-12-28T07:06:42.664Z,3.36
2022-12-28T07:09:15.662Z,3.30
2022-12-28T07:11:44.306Z,3.40
2022-12-28T07:14:12.976Z,3.42
2022-12-28T07:19:08.757Z,3.29
2022-12-28T07:21:39.123Z,3.28
2022-12-28T07:24:08.347Z,3.28
2022-12-28T07:26:39.290Z,3.30
2022-12-28T07:29:09.916Z,3.29
2022-12-28T07:31:45.383Z,3.32
2022-12-28T07:34:14.574Z,3.29
2022-12-28T07:36:42.896Z,3.30
2022-12-28T07:39:11.152Z,3.28
2022-12-28T07:41:41.139Z,3.28
2022-12-28T07:44:09.416Z,3.33
2022-12-28T07:46:41.584Z,3.38
2022-12-28T07:49:10.129Z,3.39
2022-12-28T07:51:39.793Z,3.33
2022-12-28T07:54:08.789Z,3.34
2022-12-28T07:59:07.422Z,3.23
2022-12-28T08:01:38.174Z,3.43
2022-12-28T08:04:08.110Z,3.50
2022-12-28T08:06:38.926Z,3.51
2022-12-28T08:09:08.712Z,3.45
2022-12-28T08:11:38.793Z,3.42
2022-12-28T08:14:09.520Z,3.43
2022-12-28T08:16:40.265Z,3.43
2022-12-28T08:19:08.995Z,3.45
2022-12-28T08:21:38.998Z,3.52
2022-12-28T08:24:08.620Z,3.51
2022-12-28T08:26:38.893Z,3.50
2022-12-28T08:29:11.703Z,3.39
2022-12-28T08:31:42.287Z,3.46
2022-12-28T08:34:13.709Z,3.48
2022-12-28T08:36:42.172Z,3.43
2022-12-28T08:39:10.909Z,3.42
2022-12-28T08:41:39.880Z,3.41
2022-12-28T08:44:09.741Z,3.44
2022-12-28T08:46:38.254Z,3.45
2022-12-28T08:49:06.991Z,3.45
2022-12-28T08:51:36.988Z,3.44
2022-12-28T08:54:05.554Z,3.49
2022-12-28T08:56:35.245Z,3.46
2022-12-28T08:59:03.829Z,3.44
2022-12-28T09:01:42.525Z,3.43
2022-12-28T09:04:14.442Z,3.42
2022-12-28T09:06:42.920Z,3.41
2022-12-28T09:09:14.095Z,3.42
2022-12-28T09:11:44.333Z,3.46
2022-12-28T09:14:22.062Z,3.54
2022-12-28T09:16:53.674Z,3.60
2022-12-28T09:19:22.978Z,3.54
2022-12-28T09:21:53.443Z,3.56
2022-12-28T09:24:22.932Z,3.59
2022-12-28T09:26:53.069Z,3.63
2022-12-28T09:29:21.747Z,3.60
2022-12-28T09:31:50.086Z,3.63
2022-12-28T09:34:37.383Z,3.57
2022-12-28T09:37:06.567Z,3.49
2022-12-28T09:39:41.816Z,3.61
2022-12-28T09:42:17.413Z,3.56
2022-12-28T09:44:56.248Z,3.61
2022-12-28T09:47:35.040Z,3.57
2022-12-28T09:50:25.999Z,3.55
2022-12-28T09:53:04.976Z,3.55
2022-12-28T09:55:34.937Z,3.55
2022-12-28T09:58:05.653Z,3.68
2022-12-28T10:00:40.044Z,3.63
2022-12-28T10:03:16.155Z,3.66
2022-12-28T10:05:46.792Z,3.61
2022-12-28T10:08:18.722Z,3.64
2022-12-28T10:10:49.285Z,3.77
2022-12-28T10:13:58.641Z,3.72
2022-12-28T10:16:22.303Z,3.75
2022-12-28T10:18:52.146Z,3.75
2022-12-28T10:21:31.993Z,3.71
2022-12-28T10:27:02.073Z,3.71
2022-12-28T10:29:33.963Z,3.68
2022-12-28T10:32:05.488Z,3.66
2022-12-28T10:34:39.133Z,3.74
2022-12-28T10:37:23.654Z,3.73
2022-12-28T10:39:56.739Z,3.74
2022-12-28T10:42:28.976Z,3.67
2022-12-28T10:45:03.798Z,3.72
2022-12-28T10:47:36.148Z,3.83
2022-12-28T10:50:47.269Z,3.78
2022-12-28T10:53:31.705Z,3.78
2022-12-28T10:56:19.926Z,3.86
2022-12-28T10:58:52.008Z,3.88
2022-12-28T11:01:29.583Z,3.89
2022-12-28T11:04:08.368Z,3.96
2022-12-28T11:06:53.586Z,3.88
2022-12-28T11:09:36.832Z,4.00
2022-12-28T11:12:19.387Z,4.00
2022-12-28T11:14:48.169Z,4.11
2022-12-28T11:17:23.504Z,4.08
2022-12-28T11:19:56.413Z,4.04
2022-12-28T11:22:27.233Z,4.05
2022-12-28T11:25:01.541Z,4.12
2022-12-28T11:27:31.037Z,3.92
2022-12-28T11:29:59.741Z,4.20
2022-12-28T11:32:40.855Z,4.15
2022-12-28T11:35:16.819Z,4.30
2022-12-28T11:37:51.140Z,4.20
2022-12-28T11:40:49.388Z,4.25
2022-12-28T11:43:57.671Z,4.33
2022-12-28T11:46:40.808Z,4.35
2022-12-28T11:49:39.403Z,4.25
2022-12-28T11:52:44.277Z,4.44
2022-12-28T11:55:38.441Z,4.43
2022-12-28T11:58:37.196Z,4.45
2022-12-28T12:01:05.908Z,4.55
2022-12-28T12:04:18.226Z,4.49
2022-12-28T12:07:31.649Z,4.56
2022-12-28T12:10:30.703Z,4.60
2022-12-28T12:13:00.504Z,4.68
2022-12-28T12:15:35.810Z,4.72
2022-12-28T12:18:07.322Z,4.80
2022-12-28T12:20:53.653Z,4.71
2022-12-28T12:23:29.832Z,4.80
2022-12-28T12:26:02.164Z,4.80
2022-12-28T12:28:39.604Z,4.82
2022-12-28T12:31:15.246Z,4.84
2022-12-28T12:33:47.903Z,4.94
2022-12-28T12:36:30.699Z,4.93
2022-12-28T12:39:21.415Z,4.97
2022-12-28T12:42:02.099Z,4.99
2022-12-28T12:44:40.907Z,5.00
2022-12-28T12:47:35.742Z,4.93
2022-12-28T12:50:32.709Z,5.01
2022-12-28T12:53:07.991Z,5.01
2022-12-28T12:55:56.334Z,5.09
2022-12-28T12:58:29.671Z,5.13
2022-12-28T13:01:17.150Z,5.16
2022-12-28T13:03:47.874Z,5.13
2022-12-28T13:06:21.359Z,5.13
2022-12-28T13:08:53.956Z,5.18
2022-12-28T13:11:24.099Z,5.06
2022-12-28T13:13:55.147Z,5.21
2022-12-28T13:16:27.243Z,5.17
2022-12-28T13:18:57.684Z,5.22
2022-12-28T13:21:30.012Z,5.23
2022-12-28T13:23:58.747Z,5.29
2022-12-28T13:26:29.915Z,5.26
2022-12-28T13:29:00.903Z,5.33
2022-12-28T13:31:35.335Z,5.31
2022-12-28T13:34:05.844Z,5.34
2022-12-28T13:36:35.553Z,5.37
2022-12-28T13:39:06.649Z,5.45
2022-12-28T13:41:37.375Z,5.45
2022-12-28T13:44:44.138Z,5.43
2022-12-28T13:47:20.289Z,5.58
2022-12-28T13:49:56.370Z,5.54
2022-12-28T13:52:31.840Z,5.63
2022-12-28T13:55:03.671Z,5.70
2022-12-28T13:57:55.661Z,5.65
2022-12-28T14:00:24.391Z,5.47
2022-12-28T14:02:56.496Z,5.46
2022-12-28T14:05:27.523Z,5.56
2022-12-28T14:07:59.609Z,5.52
2022-12-28T14:10:29.304Z,5.55
2022-12-28T14:12:58.653Z,5.57
2022-12-28T14:15:27.253Z,5.57
2022-12-28T14:17:56.192Z,5.61
2022-12-28T14:20:24.617Z,5.58
2022-12-28T14:22:52.926Z,5.57
2022-12-28T14:25:24.097Z,5.58
2022-12-28T14:27:58.718Z,5.60
2022-12-28T14:30:30.349Z,5.60
2022-12-28T14:33:05.937Z,5.63
2022-12-28T14:35:38.224Z,5.61
2022-12-28T14:38:06.747Z,5.58
2022-12-28T14:40:36.839Z,5.44
2022-12-28T14:43:11.888Z,5.38
2022-12-28T14:48:37.556Z,5.38
2022-12-28T14:51:24.386Z,5.45
2022-12-28T14:54:16.616Z,5.41
2022-12-28T14:56:50.251Z,5.52
2022-12-28T14:59:23.993Z,5.55
2022-12-28T15:00:25.491Z,5.40
2022-12-28T15:01:52.714Z,5.56
2022-12-28T15:04:30.243Z,5.58
2022-12-28T15:06:58.986Z,5.70
2022-12-28T15:09:27.856Z,5.75
2022-12-28T15:12:17.841Z,5.70
2022-12-28T15:14:47.125Z,6.00
2022-12-28T15:17:17.613Z,6.26
2022-12-28T15:19:47.066Z,6.45
2022-12-28T15:22:16.353Z,6.46
2022-12-28T15:24:49.192Z,6.72
2022-12-28T15:27:19.308Z,6.83
2022-12-28T15:30:05.080Z,6.82
2022-12-28T15:32:34.452Z,6.93
2022-12-28T15:35:03.643Z,7.02
2022-12-28T15:37:32.400Z,7.04
2022-12-28T15:40:01.428Z,7.02
2022-12-28T15:42:35.061Z,7.02
2022-12-28T15:45:10.680Z,7.13
2022-12-28T15:47:39.221Z,7.17
2022-12-28T15:50:08.665Z,7.20
2022-12-28T15:52:37.230Z,7.21
2022-12-28T15:55:07.065Z,7.24
2022-12-28T15:57:37.191Z,7.24
2022-12-28T16:00:06.869Z,7.23
2022-12-28T16:02:35.619Z,7.25
2022-12-28T16:05:04.285Z,7.18
2022-12-28T16:07:33.099Z,7.24
2022-12-28T16:10:01.931Z,7.25
2022-12-28T16:12:30.692Z,7.30
2022-12-28T16:15:01.344Z,7.27
2022-12-28T16:17:29.868Z,7.26
2022-12-28T16:19:58.535Z,7.30
2022-12-28T16:22:27.124Z,7.28
2022-12-28T16:24:55.311Z,7.33
2022-12-28T16:27:23.913Z,7.34
2022-12-28T16:29:58.448Z,7.33
2022-12-28T16:32:29.151Z,7.34
2022-12-28T16:34:57.773Z,7.35
2022-12-28T16:37:29.164Z,7.33
2022-12-28T16:39:57.279Z,7.30
2022-12-28T16:42:25.557Z,7.31
2022-12-28T16:44:53.656Z,7.33
2022-12-28T16:47:22.482Z,7.31
2022-12-28T16:49:52.128Z,7.32
2022-12-28T16:52:20.271Z,7.38
2022-12-28T16:54:48.784Z,7.37
2022-12-28T16:57:17.187Z,7.35
2022-12-28T16:59:49.856Z,7.30
2022-12-28T17:02:22.670Z,7.26
2022-12-28T17:04:53.506Z,7.31
2022-12-28T17:07:25.684Z,7.32
2022-12-28T17:09:55.363Z,7.31
2022-12-28T17:12:25.711Z,7.33
2022-12-28T17:14:54.696Z,7.37
2022-12-28T17:17:24.311Z,7.33
2022-12-28T17:19:55.499Z,7.30
2022-12-28T17:22:25.235Z,7.33
2022-12-28T17:24:54.946Z,7.30
2022-12-28T17:27:24.450Z,7.36
2022-12-28T17:29:54.737Z,7.33
2022-12-28T17:32:24.885Z,7.34
2022-12-28T17:34:55.252Z,7.32
2022-12-28T17:37:23.420Z,7.33
2022-12-28T17:39:51.779Z,7.29
2022-12-28T17:42:19.890Z,7.27
2022-12-28T17:44:48.929Z,7.25
2022-12-28T17:47:20.345Z,7.25
2022-12-28T17:49:48.449Z,7.29
2022-12-28T17:52:21.831Z,7.22
2022-12-28T17:54:50.398Z,7.25
2022-12-28T17:57:19.120Z,7.21
2022-12-28T17:59:47.798Z,7.21
2022-12-28T18:02:16.263Z,7.22
2022-12-28T18:04:44.819Z,7.22
2022-12-28T18:07:13.088Z,7.25
2022-12-28T18:09:42.916Z,7.21
2022-12-28T18:12:11.056Z,7.26
2022-12-28T18:14:40.209Z,7.28
2022-12-28T18:17:12.946Z,7.26
2022-12-28T18:19:41.370Z,7.30
2022-12-28T18:22:10.236Z,7.28
2022-12-28T18:24:38.833Z,7.26
2022-12-28T18:27:08.597Z,7.28
2022-12-28T18:29:37.001Z,7.30
2022-12-28T18:32:05.379Z,7.29
2022-12-28T18:34:33.559Z,7.29
2022-12-28T18:37:02.739Z,7.23
2022-12-28T18:39:31.166Z,7.23
2022-12-28T18:41:59.401Z,7.22
2022-12-28T18:44:29.281Z,7.23
2022-12-28T18:46:57.704Z,7.28
2022-12-28T18:49:26.220Z,7.30
2022-12-28T18:51:55.409Z,7.28
2022-12-28T18:54:23.914Z,7.13
2022-12-28T18:56:55.081Z,7.26
2022-12-28T18:59:24.751Z,7.22
2022-12-28T19:02:15.880Z,7.05
2022-12-28T19:04:43.923Z,7.25
2022-12-28T19:07:12.372Z,7.19
2022-12-28T19:10:02.779Z,7.23
2022-12-28T19:12:34.892Z,7.24
2022-12-28T19:15:03.163Z,7.29
2022-12-28T19:17:32.787Z,7.24
2022-12-28T19:20:01.079Z,7.32
2022-12-28T19:22:30.703Z,7.32
2022-12-28T19:24:58.951Z,7.31
2022-12-28T19:27:27.308Z,7.33
2022-12-28T19:29:55.461Z,7.24
2022-12-28T19:32:23.782Z,7.31
2022-12-28T19:34:54.120Z,7.29
2022-12-28T19:37:22.571Z,7.27
2022-12-28T19:39:56.211Z,7.24
2022-12-28T19:42:26.336Z,7.24
2022-12-28T19:44:54.793Z,7.17
2022-12-28T19:47:23.027Z,7.14
2022-12-28T19:49:52.930Z,7.12
2022-12-28T19:52:21.085Z,7.08
2022-12-28T19:54:49.537Z,7.08
2022-12-28T19:57:18.191Z,7.09
2022-12-28T19:59:46.666Z,7.08
2022-12-28T20:02:15.079Z,7.05
2022-12-28T20:04:45.879Z,7.05
2022-12-28T20:07:16.104Z,7.04
2022-12-28T20:09:44.337Z,7.11
2022-12-28T20:12:12.955Z,7.08
2022-12-28T20:14:41.383Z,7.12
2022-12-28T20:17:12.021Z,7.15
2022-12-28T20:19:40.570Z,7.18
2022-12-28T20:22:08.756Z,7.21
2022-12-28T20:24:38.525Z,7.24
2022-12-28T20:27:06.997Z,7.26
2022-12-28T20:29:35.294Z,7.25
2022-12-28T20:32:04.045Z,7.22
2022-12-28T20:34:34.929Z,7.30
2022-12-28T20:37:03.113Z,7.31
2022-12-28T20:39:31.450Z,7.40
2022-12-28T20:42:18.955Z,7.33
2022-12-28T20:44:47.514Z,7.43
2022-12-28T20:47:15.741Z,7.41
2022-12-28T20:49:43.872Z,7.44
2022-12-28T20:52:12.345Z,7.45
2022-12-28T20:54:40.668Z,7.45
2022-12-28T20:57:10.542Z,7.42
2022-12-28T20:59:38.783Z,7.46
2022-12-28T21:02:06.936Z,7.46
2022-12-28T21:04:35.237Z,7.46
2022-12-28T21:07:04.935Z,7.49
2022-12-28T21:09:33.278Z,7.52
2022-12-28T21:12:01.453Z,7.54
2022-12-28T21:14:30.963Z,7.52
2022-12-28T21:16:59.409Z,7.54
2022-12-28T21:19:27.540Z,7.53
2022-12-28T21:21:55.766Z,7.59
2022-12-28T21:24:24.053Z,7.58
2022-12-28T21:26:52.227Z,7.64
2022-12-28T21:29:25.777Z,7.64
2022-12-28T21:31:56.277Z,7.61
2022-12-28T21:34:27.870Z,7.61
2022-12-28T21:36:56.677Z,7.63
2022-12-28T21:39:24.863Z,7.67
2022-12-28T21:41:53.117Z,7.67
2022-12-28T21:44:22.999Z,7.60
2022-12-28T21:46:52.683Z,7.67
2022-12-28T21:49:22.642Z,7.64
2022-12-28T21:51:51.716Z,7.72
2022-12-28T21:54:22.058Z,7.69
2022-12-28T21:56:52.119Z,7.61
2022-12-28T21:59:20.295Z,7.67
2022-12-28T22:02:02.605Z,7.69
2022-12-28T22:04:50.111Z,7.67
2022-12-28T22:07:22.660Z,7.65
2022-12-28T22:10:08.219Z,7.66
2022-12-28T22:12:37.254Z,7.66
2022-12-28T22:15:28.168Z,7.67
2022-12-28T22:17:57.243Z,7.58
2022-12-28T22:20:28.163Z,7.65
2022-12-28T22:22:57.492Z,7.65
2022-12-28T22:25:27.101Z,7.57
2022-12-28T22:27:55.287Z,7.62
2022-12-28T22:30:23.565Z,7.64
2022-12-28T22:32:51.982Z,7.61
2022-12-28T22:35:20.569Z,7.60
2022-12-28T22:37:50.533Z,7.54
2022-12-28T22:40:19.176Z,7.53
2022-12-28T22:42:49.320Z,7.56
2022-12-28T22:45:19.459Z,7.55
2022-12-28T22:47:48.539Z,7.59
2022-12-28T22:50:19.147Z,7.51
2022-12-28T22:52:47.902Z,7.44
2022-12-28T22:55:17.856Z,7.41
2022-12-28T22:57:49.036Z,7.46
2022-12-28T23:00:17.639Z,7.47
2022-12-28T23:02:47.014Z,7.44
2022-12-28T23:05:15.620Z,7.44
2022-12-28T23:07:43.898Z,7.44
2022-12-28T23:10:12.308Z,7.41
2022-12-28T23:12:41.813Z,7.33
2022-12-28T23:15:19.193Z,7.35
2022-12-28T23:17:50.387Z,7.30
2022-12-28T23:20:36.374Z,7.30
2022-12-28T23:23:22.146Z,7.37
2022-12-28T23:26:08.257Z,7.37
2022-12-28T23:28:37.801Z,7.28
2022-12-28T23:31:06.427Z,7.28
2022-12-28T23:33:34.609Z,7.30
2022-12-28T23:36:03.976Z,7.23
2022-12-28T23:38:32.908Z,7.27
2022-12-28T23:41:23.018Z,7.26
2022-12-28T23:43:52.886Z,7.24
2022-12-28T23:46:21.206Z,7.23
2022-12-28T23:48:49.537Z,7.19
2022-12-28T23:51:20.781Z,7.20
2022-12-28T23:53:48.912Z,7.17
2022-12-28T23:56:17.048Z,7.13
2022-12-28T23:58:45.625Z,7.21
